Portada
METAR-TAF:

METAR-TAF

Aeropuertos :

Rosecrans Memorial Airport

Saint Joseph, Misuri, Estados Unidos

latitud: 39-46-05N, longitud: 094-54-33W, altitud: 251 m

Observación

El informe se hizo hace 43 minutos, a las 09:53 UTC
Temperatura -3°C
Humedad 74%
Presión 1026 hPa
Visibilidad: 14.5 km
Cielo despejado

METAR: KSTJ 030953Z AUTO 9SM CLR M03/M07 A3030 RMK AO2 SLP265 T10281067

Hora: 04:36 (10:36 UTC)

Pronóstico

El informe se hizo hace 5 horas y 16 minutos, a las 05:20 UTC
Pronóstico válido del 03 a las 06 UTC al 04 a las 06 UTC
Viento 6 kt del norte-noreste
Visibilidad: 10 km
Nubes dispersas a una altura de 12000 ft
A partir de las 03 a las 0900 UTC
Viento 5 kt del norte
Visibilidad: 10 km
Cielo nuboso a una altura de 25000 ft
A partir de las 03 a las 2100 UTC
Viento 5 kt del oeste-noroeste
Visibilidad: 10 km
Cielo despejado

TAF: KSTJ 030520Z 0306/0406 02006KT P6SM SCT120 FM030900 36005KT P6SM BKN250 FM032100 30005KT P6SM SKC

Observaciones y pronósticos meteorológicos de más de 4000 aeropuertos (mensajes METAR y TAF).

Los puntos amarillos y rojos representan las estaciones disponibles.

Ponga el ratón en el punto deseado para ver el nombre de la estación.

Haga clic para ver las observaciones y los pronósticos meteorológicos.

Para cambiar el mapa : haga clic en los botones verdes con una cruz de color negro para hacer un zoom, en el botón verde con un guión para alejar o en las flechas verdes para mapas adyacentes.


METAR-TAF: